Time;durP1;ratioP1;P1;durP2;ratioP2;P2;SDS_P1;SDS_P2;PMS_P1;PMS_P2;Temp;Humidity;BMP_temperature;BMP_pressure;BME280_temperature;BME280_humidity;BME280_pressure;Samples;Min_cycle;Max_cycle;Signal;HPM_P1;HPM_P2
2021/07/18 00:02:05;;;;;;;21.73;18.00;;;19.90;99.90;;;;;;5039438;28;20445;-67
2021/07/18 00:04:32;;;;;;;22.40;17.97;;;20.00;99.90;;;;;;5035150;28;20441;-67
2021/07/18 00:06:59;;;;;;;23.87;19.00;;;20.00;99.90;;;;;;5034887;28;20837;-66
2021/07/18 00:09:26;;;;;;;23.60;18.77;;;20.00;99.90;;;;;;5035035;28;20552;-67
2021/07/18 00:11:53;;;;;;;23.10;17.50;;;19.90;99.90;;;;;;5035077;28;20854;-67
2021/07/18 00:14:20;;;;;;;24.53;18.90;;;20.00;99.90;;;;;;5035408;28;20448;-67
2021/07/18 00:16:49;;;;;;;28.43;20.10;;;20.00;99.90;;;;;;5035140;28;20548;-67
2021/07/18 00:19:16;;;;;;;20.57;17.67;;;19.90;99.90;;;;;;5034778;28;20465;-67
2021/07/18 00:21:43;;;;;;;23.70;18.37;;;20.00;99.90;;;;;;5035008;28;20461;-67
2021/07/18 00:24:10;;;;;;;25.27;18.20;;;19.90;99.90;;;;;;5035105;28;20461;-66
2021/07/18 00:26:37;;;;;;;23.73;19.87;;;19.90;99.90;;;;;;5039776;28;20433;-67
2021/07/18 00:29:04;;;;;;;26.60;20.17;;;19.90;99.90;;;;;;5051343;28;20518;-67
2021/07/18 00:31:31;;;;;;;29.27;18.80;;;19.90;99.90;;;;;;5051594;28;20463;-67
2021/07/18 00:34:00;;;;;;;20.63;17.57;;;19.90;99.90;;;;;;5052218;28;20473;-69
2021/07/18 00:36:27;;;;;;;24.47;18.70;;;19.90;99.90;;;;;;5047429;28;20994;-68
2021/07/18 00:38:54;;;;;;;25.10;18.90;;;19.90;99.90;;;;;;5034983;28;20524;-66
2021/07/18 00:41:22;;;;;;;24.30;19.27;;;19.90;99.90;;;;;;5034849;28;20513;-67
2021/07/18 00:43:49;;;;;;;26.23;18.63;;;19.90;99.90;;;;;;5034951;28;20529;-66
2021/07/18 00:46:16;;;;;;;23.73;18.03;;;19.90;99.90;;;;;;5038517;28;20464;-66
2021/07/18 00:48:44;;;;;;;25.03;19.87;;;19.90;99.90;;;;;;5054456;28;20924;-66
2021/07/18 00:51:14;;;;;;;21.20;18.07;;;19.90;99.90;;;;;;5041590;28;20456;-66
2021/07/18 00:53:41;;;;;;;23.57;18.27;;;19.90;99.90;;;;;;5034746;28;20496;-66
2021/07/18 00:56:08;;;;;;;20.83;18.17;;;19.90;99.90;;;;;;5045760;28;20954;-67
2021/07/18 00:58:36;;;;;;;21.97;18.63;;;20.00;99.90;;;;;;5054340;28;20433;-67
2021/07/18 01:01:03;;;;;;;23.10;17.87;;;19.90;99.90;;;;;;5040030;28;20553;-67
2021/07/18 01:03:31;;;;;;;21.10;16.40;;;19.90;99.90;;;;;;5033384;28;20797;-67
2021/07/18 01:05:58;;;;;;;24.50;17.17;;;19.90;99.90;;;;;;5033402;28;20503;-67
2021/07/18 01:08:27;;;;;;;23.00;18.37;;;19.90;99.90;;;;;;5033176;28;20449;-67
2021/07/18 01:10:54;;;;;;;20.67;16.70;;;19.90;99.90;;;;;;5041757;28;20587;-67
2021/07/18 01:13:21;;;;;;;21.60;16.50;;;19.90;99.90;;;;;;5053090;28;20441;-68
2021/07/18 01:15:49;;;;;;;20.07;16.13;;;19.90;99.90;;;;;;5044966;28;20831;-70
2021/07/18 01:18:16;;;;;;;19.57;16.77;;;19.90;99.90;;;;;;5033028;28;20532;-68
2021/07/18 01:20:43;;;;;;;19.07;14.37;;;19.90;99.90;;;;;;5039048;28;20477;-67
2021/07/18 01:23:12;;;;;;;19.17;14.40;;;19.90;99.90;;;;;;5053073;28;20483;-68
2021/07/18 01:25:40;;;;;;;15.57;13.13;;;19.90;99.90;;;;;;5051004;28;20499;-67
2021/07/18 01:28:08;;;;;;;17.63;14.57;;;19.90;99.90;;;;;;5052817;28;20527;-67
2021/07/18 01:30:36;;;;;;;21.93;14.30;;;19.80;99.90;;;;;;5047989;28;20438;-68
2021/07/18 01:33:03;;;;;;;23.60;14.43;;;19.90;99.90;;;;;;5033873;28;20438;-67
2021/07/18 01:35:30;;;;;;;17.33;13.53;;;19.80;99.90;;;;;;5052863;28;20502;-67
2021/07/18 01:37:58;;;;;;;18.47;14.17;;;19.90;99.90;;;;;;5051732;28;20989;-67
2021/07/18 01:40:26;;;;;;;21.10;14.50;;;19.80;99.90;;;;;;5032670;28;20897;-67
2021/07/18 01:42:54;;;;;;;17.47;14.20;;;19.80;99.90;;;;;;5033477;28;20456;-67
2021/07/18 01:45:21;;;;;;;20.03;13.77;;;19.80;99.90;;;;;;5032690;28;20952;-66
2021/07/18 01:47:48;;;;;;;21.13;14.73;;;19.80;99.90;;;;;;5045031;28;20441;-67
2021/07/18 01:50:17;;;;;;;17.63;12.23;;;19.80;99.90;;;;;;5052310;28;20440;-67
2021/07/18 01:52:45;;;;;;;17.90;13.73;;;19.70;99.90;;;;;;5040084;28;20866;-66
2021/07/18 01:55:13;;;;;;;17.77;13.17;;;19.70;99.90;;;;;;5032461;28;20456;-67
2021/07/18 01:57:42;;;;;;;14.90;12.27;;;19.70;99.90;;;;;;5042794;28;20502;-67
2021/07/18 02:00:11;;;;;;;15.90;13.50;;;19.70;99.90;;;;;;5052007;28;21068;-67
2021/07/18 02:02:41;;;;;;;16.50;11.80;;;19.70;99.90;;;;;;5037833;28;20928;-67
2021/07/18 02:05:09;;;;;;;19.70;12.87;;;19.70;99.90;;;;;;5032172;28;21035;-67
2021/07/18 02:07:37;;;;;;;13.30;11.67;;;19.70;99.90;;;;;;5043667;28;20459;-67
2021/07/18 02:10:05;;;;;;;18.47;13.33;;;19.70;99.90;;;;;;5052050;28;20456;-68
2021/07/18 02:12:33;;;;;;;19.53;13.13;;;19.70;99.90;;;;;;5039688;28;20442;-69
2021/07/18 02:15:03;;;;;;;14.10;11.50;;;19.70;99.90;;;;;;5032247;28;20808;-67
2021/07/18 02:17:30;;;;;;;16.83;12.00;;;19.60;99.90;;;;;;5042312;28;20935;-68
2021/07/18 02:19:58;;;;;;;16.13;12.27;;;19.70;99.90;;;;;;5052002;28;20479;-69
2021/07/18 02:22:32;;;;;;;14.30;11.33;;;19.60;99.90;;;;;;5041813;28;20516;-69
2021/07/18 02:24:59;;;;;;;14.40;11.13;;;19.70;99.90;;;;;;5031972;28;20442;-67
2021/07/18 02:27:26;;;;;;;15.53;11.53;;;19.70;99.90;;;;;;5040685;28;20437;-69
2021/07/18 02:29:53;;;;;;;16.47;10.63;;;19.60;99.90;;;;;;5038183;28;20442;-68
2021/07/18 02:32:22;;;;;;;12.83;10.63;;;19.60;99.90;;;;;;5039136;28;20444;-68
2021/07/18 02:34:49;;;;;;;13.23;11.33;;;19.60;99.90;;;;;;5052006;28;20490;-68
2021/07/18 02:37:16;;;;;;;15.00;10.80;;;19.60;99.90;;;;;;5044837;28;20495;-69
2021/07/18 02:39:47;;;;;;;14.13;10.10;;;19.60;99.90;;;;;;5032102;28;20529;-70
2021/07/18 02:42:14;;;;;;;13.53;10.23;;;19.60;99.90;;;;;;5037802;28;20520;-69
2021/07/18 02:44:41;;;;;;;15.90;10.67;;;19.60;99.90;;;;;;5051989;28;20441;-68
2021/07/18 02:47:09;;;;;;;11.30;9.23;;;19.50;99.90;;;;;;5046953;28;20477;-68
2021/07/18 02:49:38;;;;;;;13.53;9.43;;;19.50;99.90;;;;;;5032739;28;20449;-68
2021/07/18 02:52:06;;;;;;;19.40;9.83;;;19.50;99.90;;;;;;5035821;28;20468;-67
2021/07/18 02:54:33;;;;;;;10.00;8.50;;;19.40;99.90;;;;;;5052551;28;20455;-68
2021/07/18 02:57:00;;;;;;;17.90;9.80;;;19.40;99.90;;;;;;5050656;28;20494;-68
2021/07/18 02:59:27;;;;;;;14.77;9.30;;;19.40;99.90;;;;;;5052707;28;20440;-67
2021/07/18 03:01:55;;;;;;;10.23;8.40;;;19.30;99.90;;;;;;5048717;28;20835;-68
2021/07/18 03:04:22;;;;;;;11.87;8.67;;;19.30;99.90;;;;;;5032529;28;20488;-68
2021/07/18 03:06:51;;;;;;;15.83;8.23;;;19.30;99.90;;;;;;5034555;28;20528;-67
2021/07/18 03:09:20;;;;;;;12.83;9.20;;;19.30;99.90;;;;;;5052370;28;20441;-67
2021/07/18 03:11:48;;;;;;;15.00;8.73;;;19.30;99.90;;;;;;5050432;28;20915;-68
2021/07/18 03:14:15;;;;;;;16.00;9.17;;;19.20;99.90;;;;;;5032480;28;20426;-67
2021/07/18 03:16:42;;;;;;;12.60;8.07;;;19.20;99.90;;;;;;5032092;28;20928;-68
2021/07/18 03:19:09;;;;;;;13.83;8.57;;;19.20;99.90;;;;;;5055576;28;20887;-67
2021/07/18 03:21:37;;;;;;;14.93;8.10;;;19.20;99.90;;;;;;5056247;28;20480;-68
2021/07/18 03:24:06;;;;;;;13.43;8.70;;;19.20;99.90;;;;;;5036995;28;20441;-67
2021/07/18 03:26:33;;;;;;;12.43;7.70;;;19.20;99.90;;;;;;5052556;28;20445;-68
2021/07/18 03:29:00;;;;;;;14.73;9.10;;;19.20;99.90;;;;;;5056308;28;20480;-68
2021/07/18 03:31:27;;;;;;;11.17;7.83;;;19.20;99.90;;;;;;5040364;28;20480;-68
2021/07/18 03:33:54;;;;;;;10.10;8.97;;;19.20;99.90;;;;;;5036267;28;20438;-68
2021/07/18 03:36:21;;;;;;;9.00;6.93;;;19.20;99.90;;;;;;5049495;28;20770;-68
2021/07/18 03:38:48;;;;;;;9.93;8.33;;;19.20;99.90;;;;;;5056259;28;20841;-68
2021/07/18 03:41:20;;;;;;;10.57;8.13;;;19.20;99.90;;;;;;5043239;28;20488;-68
2021/07/18 03:43:48;;;;;;;14.50;8.23;;;19.20;99.90;;;;;;5036298;28;20934;-67
2021/07/18 03:46:15;;;;;;;11.97;8.27;;;19.20;99.90;;;;;;5047128;28;20448;-67
2021/07/18 03:48:42;;;;;;;9.77;8.00;;;19.20;99.90;;;;;;5055946;28;20439;-68
2021/07/18 03:51:09;;;;;;;10.80;7.53;;;19.20;99.90;;;;;;5040764;28;20948;-67
2021/07/18 03:53:36;;;;;;;9.43;7.97;;;19.20;99.90;;;;;;5043033;28;20851;-67
2021/07/18 03:56:03;;;;;;;15.87;7.77;;;19.10;99.90;;;;;;5055672;28;20441;-67
2021/07/18 03:58:31;;;;;;;12.40;8.10;;;19.20;99.90;;;;;;5049383;28;20449;-68
2021/07/18 04:00:58;;;;;;;9.83;7.30;;;19.10;99.90;;;;;;5035668;28;20535;-68
2021/07/18 04:03:25;;;;;;;12.40;8.33;;;19.10;99.90;;;;;;5040417;28;20447;-68
2021/07/18 04:05:52;;;;;;;8.40;7.17;;;19.10;99.90;;;;;;5052698;28;20472;-67
2021/07/18 04:08:19;;;;;;;11.93;7.60;;;19.10;99.90;;;;;;5035800;28;20909;-67
2021/07/18 04:10:46;;;;;;;9.37;6.37;;;19.10;99.90;;;;;;5036702;28;20438;-68
2021/07/18 04:13:13;;;;;;;14.03;8.53;;;19.10;99.90;;;;;;5055873;28;20448;-68
2021/07/18 04:15:42;;;;;;;12.20;10.23;;;19.10;99.90;;;;;;5055083;28;20460;-71
2021/07/18 04:18:10;;;;;;;13.93;7.70;;;19.10;99.90;;;;;;5035288;28;20465;-68
2021/07/18 04:20:42;;;;;;;13.83;6.90;;;19.10;99.90;;;;;;5035568;28;20927;-67
2021/07/18 04:23:10;;;;;;;9.87;7.20;;;19.10;99.90;;;;;;5035484;28;21010;-67
2021/07/18 04:25:37;;;;;;;10.13;8.50;;;19.10;99.90;;;;;;5035373;28;20484;-68
2021/07/18 04:28:04;;;;;;;19.87;7.10;;;19.10;99.90;;;;;;5053249;28;20464;-67
2021/07/18 04:30:32;;;;;;;14.03;7.90;;;19.10;99.90;;;;;;5054666;28;20841;-68
2021/07/18 04:33:00;;;;;;;10.23;7.23;;;19.10;99.90;;;;;;5037953;28;20570;-68
2021/07/18 04:35:27;;;;;;;7.60;6.47;;;19.00;99.90;;;;;;5035431;28;20943;-67
2021/07/18 04:37:54;;;;;;;12.27;7.43;;;19.10;99.90;;;;;;5036033;28;20451;-68
2021/07/18 04:40:22;;;;;;;8.43;6.57;;;19.00;99.90;;;;;;5035296;28;20446;-69
2021/07/18 04:42:49;;;;;;;13.63;8.27;;;19.10;99.90;;;;;;5049331;28;20467;-68
2021/07/18 04:45:17;;;;;;;10.07;7.10;;;19.10;99.90;;;;;;5055023;28;20484;-68
2021/07/18 04:47:48;;;;;;;10.73;6.10;;;19.10;99.90;;;;;;5053313;28;20433;-67
2021/07/18 04:50:22;;;;;;;9.03;7.00;;;19.00;99.90;;;;;;5054964;28;20502;-67
2021/07/18 04:52:49;;;;;;;8.50;6.13;;;19.00;99.90;;;;;;5041116;28;20845;-68
2021/07/18 04:55:19;;;;;;;10.33;7.80;;;19.00;99.90;;;;;;5034974;28;20449;-67
2021/07/18 04:57:47;;;;;;;11.00;6.50;;;19.00;99.90;;;;;;5047074;28;20437;-66
2021/07/18 05:00:16;;;;;;;11.30;7.03;;;19.00;99.90;;;;;;5054864;28;20437;-67
2021/07/18 05:02:44;;;;;;;8.70;6.53;;;19.00;99.90;;;;;;5042946;28;20513;-67
2021/07/18 05:05:12;;;;;;;11.40;5.93;;;19.00;99.90;;;;;;5034763;28;20492;-67
2021/07/18 05:07:51;;;;;;;10.70;6.93;;;19.00;99.90;;;;;;5044604;28;20778;-67
2021/07/18 05:10:20;;;;;;;8.60;6.03;;;19.00;99.90;;;;;;5054608;28;20452;-67
2021/07/18 05:12:49;;;;;;;8.70;5.73;;;19.00;99.90;;;;;;5043061;28;20433;-67
2021/07/18 05:15:16;;;;;;;7.60;6.03;;;19.00;99.90;;;;;;5038407;28;20437;-67
2021/07/18 05:17:44;;;;;;;11.67;6.30;;;19.00;99.90;;;;;;5054155;28;20472;-67
2021/07/18 05:20:18;;;;;;;11.40;6.20;;;19.00;99.90;;;;;;5052496;28;20434;-67
2021/07/18 05:22:45;;;;;;;7.67;6.73;;;18.90;99.90;;;;;;5034689;28;20991;-66
2021/07/18 05:25:14;;;;;;;8.20;6.77;;;18.90;99.90;;;;;;5036980;28;20445;-66
2021/07/18 05:27:41;;;;;;;8.57;6.10;;;18.90;99.90;;;;;;5054284;28;20863;-66
2021/07/18 05:30:10;;;;;;;10.60;6.50;;;18.90;99.90;;;;;;5052129;28;20479;-66
2021/07/18 05:32:37;;;;;;;9.13;5.90;;;18.90;99.90;;;;;;5054216;28;20957;-66
2021/07/18 05:35:05;;;;;;;6.47;5.87;;;18.90;99.90;;;;;;5049887;28;20940;-66
2021/07/18 05:37:32;;;;;;;11.30;5.87;;;18.90;99.90;;;;;;5034131;28;20449;-66
2021/07/18 05:40:00;;;;;;;14.33;6.33;;;18.90;99.90;;;;;;5035090;28;20469;-66
2021/07/18 05:42:28;;;;;;;8.10;6.30;;;18.90;99.90;;;;;;5032967;28;20571;-68
2021/07/18 05:44:55;;;;;;;10.83;6.57;;;18.90;99.90;;;;;;5035355;28;20449;-67
2021/07/18 05:47:22;;;;;;;13.60;6.70;;;18.90;99.90;;;;;;5053904;28;20441;-69
2021/07/18 05:49:52;;;;;;;9.93;6.10;;;18.80;99.90;;;;;;5049341;28;20453;-69
2021/07/18 05:52:20;;;;;;;9.30;5.70;;;18.80;99.90;;;;;;5053145;28;20445;-68
2021/07/18 05:54:51;;;;;;;8.00;6.20;;;18.80;99.90;;;;;;5038386;28;20438;-68
2021/07/18 05:57:18;;;;;;;8.90;5.53;;;18.80;99.90;;;;;;5033842;28;20430;-68
2021/07/18 05:59:53;;;;;;;7.20;5.40;;;18.80;99.90;;;;;;5047647;28;20432;-68
2021/07/18 06:02:25;;;;;;;7.97;5.80;;;18.80;99.90;;;;;;5053825;28;20511;-67
2021/07/18 06:04:54;;;;;;;13.20;7.37;;;18.80;99.90;;;;;;5038877;28;20433;-67
2021/07/18 06:07:21;;;;;;;8.63;5.57;;;18.80;99.90;;;;;;5033627;28;20446;-68
2021/07/18 06:09:48;;;;;;;10.20;5.10;;;18.70;99.90;;;;;;5046895;28;20441;-68
2021/07/18 06:12:24;;;;;;;9.30;6.20;;;18.70;99.90;;;;;;5053523;28;20437;-68
2021/07/18 06:14:53;;;;;;;10.43;5.93;;;18.80;99.90;;;;;;5039783;28;20479;-67
2021/07/18 06:17:20;;;;;;;8.90;6.40;;;18.80;99.90;;;;;;5033423;28;20445;-67
2021/07/18 06:19:47;;;;;;;11.17;5.77;;;18.70;99.90;;;;;;5031569;28;20434;-67
2021/07/18 06:22:14;;;;;;;10.70;5.20;;;18.80;99.90;;;;;;5032923;28;20485;-67
2021/07/18 06:24:41;;;;;;;10.93;5.90;;;18.70;99.90;;;;;;5033329;28;20441;-67
2021/07/18 06:27:12;;;;;;;15.90;8.63;;;18.70;99.90;;;;;;5033262;28;20441;-69
2021/07/18 06:29:39;;;;;;;13.50;5.60;;;18.80;99.90;;;;;;5050518;28;20435;-67
2021/07/18 06:32:09;;;;;;;7.70;6.40;;;18.80;99.90;;;;;;5042885;28;20470;-68
2021/07/18 06:34:35;;;;;;;7.80;6.07;;;18.80;99.90;;;;;;5035285;28;20446;-69
2021/07/18 06:37:03;;;;;;;7.10;5.50;;;18.80;99.90;;;;;;5033445;28;20456;-68
2021/07/18 06:39:30;;;;;;;8.67;5.10;;;18.70;99.90;;;;;;5034418;28;20434;-67
2021/07/18 06:41:57;;;;;;;10.10;5.70;;;18.80;99.90;;;;;;5033772;28;21287;-68
2021/07/18 06:44:24;;;;;;;9.20;5.37;;;18.70;99.90;;;;;;5032601;28;20928;-68
2021/07/18 06:46:51;;;;;;;9.30;5.30;;;18.80;99.90;;;;;;5048709;28;20437;-68
2021/07/18 06:49:20;;;;;;;9.13;5.27;;;18.70;99.90;;;;;;5032221;28;20517;-68
2021/07/18 06:51:47;;;;;;;9.63;5.90;;;18.70;99.90;;;;;;5041657;28;20452;-68
2021/07/18 06:54:15;;;;;;;8.50;6.13;;;18.70;99.90;;;;;;5031943;28;20958;-69
2021/07/18 06:56:42;;;;;;;13.97;6.63;;;18.70;99.90;;;;;;5031416;28;20433;-68
2021/07/18 06:59:09;;;;;;;8.60;6.00;;;18.70;99.90;;;;;;5031736;28;20433;-67
2021/07/18 07:01:36;;;;;;;7.80;6.00;;;18.80;99.90;;;;;;5040892;28;20542;-67
2021/07/18 07:04:06;;;;;;;8.90;5.80;;;18.70;99.90;;;;;;5047353;28;20487;-69
2021/07/18 07:06:36;;;;;;;9.20;5.23;;;18.70;99.90;;;;;;5045383;28;20437;-68
2021/07/18 07:09:03;;;;;;;6.40;5.40;;;18.80;99.90;;;;;;5044823;28;20584;-68
2021/07/18 07:11:30;;;;;;;10.30;5.60;;;18.80;99.90;;;;;;5047705;28;21186;-68
2021/07/18 07:13:58;;;;;;;6.53;4.50;;;18.80;99.90;;;;;;5044808;28;20438;-67
2021/07/18 07:16:30;;;;;;;7.67;6.23;;;18.80;99.90;;;;;;5039250;28;20429;-68
2021/07/18 07:19:01;;;;;;;9.87;5.87;;;18.90;99.90;;;;;;5036294;28;20458;-67
2021/07/18 07:21:32;;;;;;;7.67;6.60;;;18.90;99.90;;;;;;5030331;28;20449;-68
2021/07/18 07:24:00;;;;;;;8.70;5.47;;;18.80;99.90;;;;;;5032347;28;20492;-68
2021/07/18 07:26:30;;;;;;;7.43;5.10;;;18.90;99.90;;;;;;5032241;28;20441;-67
2021/07/18 07:28:59;;;;;;;6.87;4.63;;;18.90;99.90;;;;;;5031405;28;20437;-68
2021/07/18 07:31:28;;;;;;;9.43;5.80;;;18.90;99.90;;;;;;5046285;28;20437;-68
2021/07/18 07:33:55;;;;;;;8.60;5.23;;;18.90;99.90;;;;;;5046042;28;20434;-67
2021/07/18 07:36:30;;;;;;;9.40;4.80;;;18.90;99.90;;;;;;5031950;28;20434;-68
2021/07/18 07:39:00;;;;;;;7.67;5.17;;;18.90;99.90;;;;;;5039946;28;20437;-68
2021/07/18 07:41:28;;;;;;;10.00;5.10;;;18.90;99.90;;;;;;5034969;28;20453;-67
2021/07/18 07:43:59;;;;;;;8.00;4.77;;;18.90;99.90;;;;;;5040902;28;20452;-68
2021/07/18 07:46:27;;;;;;;18.50;5.90;;;18.90;99.90;;;;;;5044865;28;20512;-67
2021/07/18 07:49:00;;;;;;;9.60;4.97;;;18.90;99.90;;;;;;5048821;28;20455;-67
2021/07/18 07:51:28;;;;;;;7.53;4.77;;;18.90;99.90;;;;;;5048051;28;20849;-68
2021/07/18 07:53:55;;;;;;;13.53;5.10;;;18.90;99.90;;;;;;5048698;28;20472;-67
2021/07/18 07:56:22;;;;;;;9.30;5.37;;;18.80;99.90;;;;;;5042602;28;20437;-69
2021/07/18 07:58:55;;;;;;;8.87;4.80;;;18.90;99.90;;;;;;5032826;28;20843;-68
2021/07/18 08:01:32;;;;;;;9.20;5.80;;;18.90;99.90;;;;;;5031984;28;20448;-67
2021/07/18 08:03:59;;;;;;;7.43;4.33;;;18.90;99.90;;;;;;5038930;28;20472;-68
2021/07/18 08:06:30;;;;;;;7.40;5.87;;;18.80;99.90;;;;;;5047926;28;20951;-67
2021/07/18 08:09:01;;;;;;;7.10;4.97;;;18.90;99.90;;;;;;5043301;28;20442;-68
2021/07/18 08:11:28;;;;;;;8.20;4.70;;;18.90;99.90;;;;;;5056010;28;20524;-67
2021/07/18 08:13:57;;;;;;;9.23;6.30;;;18.90;99.90;;;;;;5055720;28;20527;-67
2021/07/18 08:16:26;;;;;;;6.17;4.47;;;18.80;99.90;;;;;;5055783;28;20993;-68
2021/07/18 08:18:54;;;;;;;7.10;4.83;;;18.90;99.90;;;;;;5055963;28;20501;-67
2021/07/18 08:21:21;;;;;;;10.97;6.20;;;18.90;99.90;;;;;;5056108;28;20986;-67
2021/07/18 08:23:49;;;;;;;16.00;8.00;;;18.90;99.90;;;;;;5056074;28;20568;-68
2021/07/18 08:26:17;;;;;;;9.00;5.77;;;18.90;99.90;;;;;;5056053;28;20425;-67
2021/07/18 08:28:44;;;;;;;8.40;5.30;;;18.90;99.90;;;;;;5055803;28;20994;-67
2021/07/18 08:31:12;;;;;;;10.33;6.70;;;18.90;99.90;;;;;;5055872;28;20528;-67
2021/07/18 08:33:40;;;;;;;6.70;5.47;;;18.90;99.90;;;;;;5055858;28;20447;-67
2021/07/18 08:36:07;;;;;;;7.60;5.37;;;19.00;99.90;;;;;;5055868;28;20469;-67
2021/07/18 08:38:35;;;;;;;7.13;5.70;;;18.90;99.90;;;;;;5055763;28;20531;-67
2021/07/18 08:41:02;;;;;;;6.50;5.07;;;18.90;99.90;;;;;;5055726;28;20476;-67
2021/07/18 08:43:29;;;;;;;8.47;5.10;;;19.00;99.90;;;;;;5055673;28;20572;-67
2021/07/18 08:45:56;;;;;;;7.40;5.17;;;18.90;99.90;;;;;;5055596;28;20528;-67
2021/07/18 08:48:25;;;;;;;7.03;4.33;;;19.00;99.90;;;;;;5055750;28;20464;-67
2021/07/18 08:50:52;;;;;;;7.10;5.20;;;18.90;99.90;;;;;;5055309;28;20988;-67
2021/07/18 08:53:19;;;;;;;9.20;5.97;;;18.90;99.90;;;;;;5055589;28;20516;-67
2021/07/18 08:55:47;;;;;;;8.03;4.30;;;18.90;99.90;;;;;;5055403;28;20484;-67
2021/07/18 08:58:15;;;;;;;8.67;5.67;;;18.90;99.90;;;;;;5055516;28;20858;-67
2021/07/18 09:00:43;;;;;;;7.27;5.20;;;18.90;99.90;;;;;;5055361;28;20445;-67
2021/07/18 09:03:15;;;;;;;7.97;5.07;;;18.90;99.90;;;;;;5055351;28;20514;-67
2021/07/18 09:05:43;;;;;;;7.40;5.00;;;19.00;99.90;;;;;;5055384;28;20520;-67
2021/07/18 09:08:18;;;;;;;7.83;4.97;;;19.00;99.90;;;;;;5055050;28;20532;-67
2021/07/18 09:10:48;;;;;;;8.30;4.80;;;19.00;99.90;;;;;;5055109;28;20443;-67
2021/07/18 09:13:20;;;;;;;8.60;5.20;;;19.00;99.90;;;;;;5055278;28;20433;-67
2021/07/18 09:15:49;;;;;;;7.50;4.73;;;19.20;99.90;;;;;;5054756;28;20536;-68
2021/07/18 09:18:18;;;;;;;6.40;4.60;;;19.20;99.90;;;;;;5054974;28;20548;-67
2021/07/18 09:20:48;;;;;;;9.50;4.80;;;19.20;99.90;;;;;;5054953;28;20465;-67
2021/07/18 09:23:19;;;;;;;6.90;6.07;;;19.20;99.90;;;;;;5054953;28;20584;-67
2021/07/18 09:25:46;;;;;;;14.73;10.30;;;19.30;99.90;;;;;;5054951;28;20920;-67
2021/07/18 09:28:15;;;;;;;8.30;6.83;;;19.30;99.90;;;;;;5055004;28;20472;-67
2021/07/18 09:30:42;;;;;;;7.77;5.50;;;19.30;99.90;;;;;;5054926;28;20479;-67
2021/07/18 09:33:22;;;;;;;5.77;4.20;;;19.40;99.90;;;;;;5054794;28;20475;-67
2021/07/18 09:35:51;;;;;;;9.43;4.60;;;19.40;99.90;;;;;;5054759;28;20515;-68
2021/07/18 09:38:22;;;;;;;6.03;4.70;;;19.40;99.90;;;;;;5054774;28;20464;-68
2021/07/18 09:40:57;;;;;;;6.77;4.20;;;19.40;99.90;;;;;;5054705;28;20456;-67
2021/07/18 09:43:24;;;;;;;8.70;4.63;;;19.40;99.90;;;;;;5054564;28;20480;-67
2021/07/18 09:45:57;;;;;;;12.97;5.10;;;19.40;99.90;;;;;;5054599;28;20520;-67
2021/07/18 09:48:35;;;;;;;6.00;5.40;;;19.40;99.90;;;;;;5054492;28;20440;-68
2021/07/18 09:51:10;;;;;;;7.67;5.53;;;19.40;99.90;;;;;;5054419;28;20451;-67
2021/07/18 09:53:37;;;;;;;8.63;5.10;;;19.40;99.90;;;;;;5054328;28;20527;-67
2021/07/18 09:56:08;;;;;;;5.60;4.90;;;19.40;99.90;;;;;;5054280;28;20522;-67
2021/07/18 09:58:36;;;;;;;5.83;4.90;;;19.50;99.90;;;;;;5054234;28;20449;-68
2021/07/18 10:01:06;;;;;;;9.43;5.67;;;19.50;99.90;;;;;;5053992;28;20527;-67
2021/07/18 10:03:46;;;;;;;14.80;6.07;;;19.50;99.90;;;;;;5053986;28;21094;-67
2021/07/18 10:06:18;;;;;;;6.53;4.60;;;19.50;99.90;;;;;;5054287;28;20994;-68
2021/07/18 10:08:49;;;;;;;9.60;4.67;;;19.60;99.90;;;;;;5054149;28;20523;-67
2021/07/18 10:11:17;;;;;;;6.47;4.60;;;19.60;99.90;;;;;;5054133;28;20437;-67
2021/07/18 10:13:46;;;;;;;6.33;3.97;;;19.60;99.90;;;;;;5053985;28;20502;-67
2021/07/18 10:16:14;;;;;;;4.83;4.20;;;19.60;99.90;;;;;;5054026;28;20519;-67
2021/07/18 10:18:42;;;;;;;5.33;4.33;;;19.60;99.90;;;;;;5053458;28;20882;-67
2021/07/18 10:21:11;;;;;;;5.60;4.30;;;19.60;99.90;;;;;;5053762;28;20528;-67
2021/07/18 10:23:41;;;;;;;7.47;4.30;;;19.60;99.90;;;;;;5053660;28;20559;-67
2021/07/18 10:26:09;;;;;;;5.67;4.33;;;19.60;99.90;;;;;;5053810;28;20527;-67
2021/07/18 10:28:37;;;;;;;5.23;4.20;;;19.60;99.90;;;;;;5053002;28;20782;-67
2021/07/18 10:31:11;;;;;;;4.57;3.10;;;19.60;99.90;;;;;;5053521;28;20453;-67
2021/07/18 10:33:38;;;;;;;5.10;3.67;;;19.60;99.90;;;;;;5053719;28;20432;-67
2021/07/18 10:36:06;;;;;;;4.77;4.30;;;19.60;99.90;;;;;;5053655;28;20870;-68
2021/07/18 10:38:35;;;;;;;5.37;3.50;;;19.60;99.90;;;;;;5053558;28;20468;-67
2021/07/18 10:41:04;;;;;;;7.87;3.83;;;19.60;99.90;;;;;;5053473;28;20862;-67
2021/07/18 10:43:36;;;;;;;4.97;4.10;;;19.70;99.90;;;;;;5053327;28;20485;-67
2021/07/18 10:46:04;;;;;;;5.10;3.30;;;19.60;99.90;;;;;;5053353;28;20443;-67
2021/07/18 10:48:49;;;;;;;3.80;3.40;;;19.60;99.90;;;;;;5053531;28;20527;-67
2021/07/18 10:51:18;;;;;;;4.83;3.47;;;19.60;99.90;;;;;;5053469;28;20475;-67
2021/07/18 10:53:46;;;;;;;5.13;3.50;;;19.50;99.90;;;;;;5053375;28;20523;-67
2021/07/18 10:56:19;;;;;;;6.43;3.50;;;19.50;99.90;;;;;;5053298;28;20523;-68
2021/07/18 10:58:52;;;;;;;4.50;3.07;;;19.50;99.90;;;;;;5053439;28;20476;-67
2021/07/18 11:01:37;;;;;;;4.37;3.50;;;19.50;99.90;;;;;;5053171;28;20441;-67
2021/07/18 11:04:42;;;;;;;5.33;3.27;;;19.50;99.90;;;;;;5053078;28;20563;-68
2021/07/18 11:07:31;;;;;;;4.13;3.10;;;19.60;99.90;;;;;;5052674;28;20858;-67
2021/07/18 11:10:01;;;;;;;4.77;3.40;;;19.60;99.90;;;;;;5053144;28;20802;-67
2021/07/18 11:12:31;;;;;;;4.10;3.30;;;19.50;99.90;;;;;;5052964;28;20463;-67
2021/07/18 11:15:33;;;;;;;3.57;2.50;;;19.50;99.90;;;;;;5052769;28;20468;-68
2021/07/18 11:18:05;;;;;;;6.03;3.17;;;19.50;99.90;;;;;;5052661;28;20491;-67
2021/07/18 11:20:40;;;;;;;3.40;2.70;;;19.50;99.90;;;;;;5052903;28;20479;-68
2021/07/18 11:23:11;;;;;;;4.60;2.80;;;19.50;99.90;;;;;;5052704;28;20565;-68
2021/07/18 11:25:59;;;;;;;3.63;3.17;;;19.50;99.90;;;;;;5053070;28;20445;-67
2021/07/18 11:28:50;;;;;;;4.50;2.87;;;19.50;99.90;;;;;;5053033;28;20434;-67
2021/07/18 11:31:23;;;;;;;4.50;3.17;;;19.60;99.90;;;;;;5052901;28;20574;-67
2021/07/18 11:33:58;;;;;;;3.20;2.90;;;19.60;99.90;;;;;;5053023;28;20531;-68
2021/07/18 11:36:55;;;;;;;3.60;2.50;;;19.60;99.90;;;;;;5052852;28;20511;-70
2021/07/18 11:39:26;;;;;;;5.40;2.63;;;19.60;99.90;;;;;;5053365;28;20440;-67
2021/07/18 11:41:55;;;;;;;3.73;2.63;;;19.70;99.90;;;;;;5056851;28;20429;-67
2021/07/18 11:44:31;;;;;;;4.30;2.47;;;19.60;99.90;;;;;;5056722;28;20534;-68
2021/07/18 11:47:02;;;;;;;4.63;3.33;;;19.60;99.90;;;;;;5056703;28;20788;-67
2021/07/18 11:49:33;;;;;;;4.63;3.60;;;19.60;99.90;;;;;;5056620;28;20935;-67
2021/07/18 11:52:01;;;;;;;2.93;2.07;;;19.60;99.90;;;;;;5056756;28;20436;-67
2021/07/18 11:54:29;;;;;;;3.70;2.30;;;19.60;99.90;;;;;;5056713;28;20519;-67
2021/07/18 11:56:56;;;;;;;2.93;2.10;;;19.70;99.90;;;;;;5056592;28;20915;-67
2021/07/18 11:59:26;;;;;;;3.37;2.53;;;19.70;99.90;;;;;;5056328;28;20856;-68
2021/07/18 12:01:54;;;;;;;4.20;2.60;;;19.80;99.90;;;;;;5056373;28;20608;-68
2021/07/18 12:04:23;;;;;;;3.60;2.70;;;19.80;99.90;;;;;;5056233;28;20523;-67
2021/07/18 12:06:55;;;;;;;3.40;2.50;;;19.80;99.90;;;;;;5055894;28;20529;-68
2021/07/18 12:09:23;;;;;;;2.80;2.20;;;19.90;99.90;;;;;;5056131;28;20975;-67
2021/07/18 12:11:53;;;;;;;2.80;1.90;;;19.90;99.90;;;;;;5056142;28;20515;-68
2021/07/18 12:14:24;;;;;;;3.47;2.40;;;20.00;99.90;;;;;;5056175;28;20476;-67
2021/07/18 12:16:55;;;;;;;3.40;2.00;;;20.00;99.90;;;;;;5056045;28;20436;-68
2021/07/18 12:19:25;;;;;;;4.70;3.87;;;20.00;99.90;;;;;;5055345;28;21049;-67
2021/07/18 12:21:53;;;;;;;8.50;5.83;;;20.00;99.90;;;;;;5048630;28;20449;-68
2021/07/18 12:24:25;;;;;;;3.67;2.47;;;20.00;99.90;;;;;;5034319;28;20595;-67
2021/07/18 12:27:06;;;;;;;3.67;2.93;;;20.00;99.90;;;;;;5034611;28;20520;-68
2021/07/18 12:29:35;;;;;;;2.37;1.63;;;19.90;99.90;;;;;;5034823;28;20480;-67
2021/07/18 12:32:03;;;;;;;2.73;1.70;;;19.90;99.90;;;;;;5034532;28;20508;-67
2021/07/18 12:34:32;;;;;;;2.50;1.90;;;19.70;99.90;;;;;;5034674;28;20477;-67
2021/07/18 12:37:03;;;;;;;3.13;2.20;;;19.60;99.90;;;;;;5034439;28;20480;-68
2021/07/18 12:39:31;;;;;;;3.87;2.20;;;19.60;99.90;;;;;;5034364;28;20437;-68
2021/07/18 12:42:01;;;;;;;4.00;1.87;;;19.50;99.90;;;;;;5034307;28;20534;-67
2021/07/18 12:44:34;;;;;;;2.83;1.67;;;19.40;99.90;;;;;;5034465;28;21082;-68
2021/07/18 12:47:33;;;;;;;5.73;1.90;;;19.30;99.90;;;;;;5034289;28;20478;-68
2021/07/18 12:50:26;;;;;;;2.97;2.10;;;19.30;99.90;;;;;;5034001;28;20864;-68
2021/07/18 12:53:01;;;;;;;2.30;1.43;;;19.40;99.90;;;;;;5034056;28;20492;-68